METAR Data
IDs: Format: Raw Decoded Include TAF

Data at: 1520 UTC 10 Aug 2022

KLHM 101515Z AUTO 16010KT 10SM CLR 18/12 A3003 RMK AO1
KLHM 101455Z AUTO 15009KT 10SM CLR 18/12 A3003 RMK AO1
KLHM 101435Z AUTO 15006KT 10SM CLR 17/12 A3003 RMK AO1
KLHM 101415Z AUTO 16004KT 10SM CLR 16/12 A3002 RMK AO1
KLHM 101355Z AUTO 15006KT 10SM CLR 16/12 A3001 RMK AO1
KLHM 101335Z AUTO 15006KT 10SM CLR 16/12 A3001 RMK AO1
KLHM 101315Z AUTO 14006KT 10SM CLR 16/12 A3000 RMK AO1
KLHM 101255Z AUTO 14008KT 10SM CLR 16/12 A3000 RMK AO1
KLHM 101235Z AUTO 14006KT 10SM CLR 16/12 A2999 RMK AO1
KLHM 101215Z AUTO 14006KT 10SM CLR 16/12 A2999 RMK AO1
KLHM 101155Z AUTO 15009KT 10SM CLR 16/12 A2999 RMK AO1
KLHM 101135Z AUTO 15008KT 10SM CLR 16/12 A2999 RMK AO1
KLHM 101115Z AUTO 15007KT 10SM CLR 16/12 A2998 RMK AO1
KLHM 101055Z AUTO 16008KT 10SM CLR 16/12 A2998 RMK AO1
KLHM 101035Z AUTO 15008KT 10SM CLR 17/12 A2998 RMK AO1
KLHM 101015Z AUTO 16008KT 10SM CLR 17/12 A2998 RMK AO1
KLHM 100955Z AUTO 14009KT 10SM CLR 17/12 A2998 RMK AO1
KLHM 100935Z AUTO 15008KT 10SM CLR 17/12 A2998 RMK AO1
KLHM 100915Z AUTO 16008KT 10SM CLR 17/11 A2998 RMK AO1
KLHM 100855Z AUTO 15008KT 10SM CLR 18/11 A2998 RMK AO1
KLHM 100835Z AUTO 15006KT 10SM CLR 18/11 A2998 RMK AO1
KLHM 100815Z AUTO 15008KT 10SM CLR 18/11 A2998 RMK AO1
KLHM 100755Z AUTO 14008KT 10SM CLR 18/11 A2998 RMK AO1
KLHM 100735Z AUTO 15008KT 10SM CLR 18/11 A2998 RMK AO1
KLHM 100715Z AUTO 15011KT 10SM CLR 20/11 A2998 RMK AO1
KLHM 100655Z AUTO 16009KT 10SM CLR 20/10 A2997 RMK AO1
KLHM 100635Z AUTO 15009KT 10SM CLR 20/10 A2997 RMK AO1
KLHM 100615Z AUTO 15008KT 10SM CLR 20/10 A2996 RMK AO1
KLHM 100555Z AUTO 15007KT 10SM CLR 20/09 A2996 RMK AO1
KLHM 100535Z AUTO 15008KT 10SM CLR 21/09 A2995 RMK AO1
KLHM 100515Z AUTO 16008KT 10SM CLR 21/09 A2995 RMK AO1
KLHM 100455Z AUTO 17008KT 10SM CLR 22/08 A2994 RMK AO1
KLHM 100435Z AUTO 15009KT 10SM CLR 22/08 A2993 RMK AO1
KLHM 100415Z AUTO 18007KT 10SM CLR 23/07 A2992 RMK AO1
KLHM 100355Z AUTO 18010KT 10SM CLR 24/06 A2991 RMK AO1
KLHM 100335Z AUTO 18007KT 10SM CLR 24/06 A2991 RMK AO1
KLHM 100315Z AUTO 16008KT 10SM CLR 25/07 A2990 RMK AO1
KLHM 100255Z AUTO 16011KT 10SM CLR 27/08 A2989 RMK AO1
KLHM 100235Z AUTO 16009KT 10SM CLR 28/08 A2989 RMK AO1
KLHM 100215Z AUTO 17010KT 10SM CLR 29/08 A2988 RMK AO1
KLHM 100155Z AUTO 17011KT 10SM CLR 31/07 A2988 RMK AO1
KLHM 100135Z AUTO 17011KT 10SM CLR 31/05 A2987 RMK AO1
KLHM 100115Z AUTO 18011G15KT 10SM CLR 32/04 A2987 RMK AO1
KLHM 100055Z AUTO 18009KT 10SM CLR 32/05 A2987 RMK AO1
KLHM 100035Z AUTO 17008KT 10SM CLR 32/04 A2987 RMK AO1
KLHM 100015Z AUTO 17008KT 10SM CLR 33/04 A2987 RMK AO1
KLHM 092355Z AUTO 19007KT 10SM CLR 33/04 A2987 RMK AO1
KLHM 092335Z AUTO 18009KT 10SM CLR 33/05 A2987 RMK AO1
KLHM 092315Z AUTO 21009KT 10SM CLR 33/06 A2988 RMK AO1
KLHM 092255Z AUTO 20010KT 10SM CLR 33/08 A2988 RMK AO1
KLHM 092235Z AUTO 17008KT 10SM CLR 32/07 A2988 RMK AO1
KLHM 092215Z AUTO 18004KT 10SM CLR 32/07 A2989 RMK AO1
KLHM 092155Z AUTO 19005KT 10SM CLR 31/08 A2990 RMK AO1
KLHM 092130Z AUTO 20008KT 140V210 10SM CLR 31/08 A2991 RMK AO1
KLHM 092115Z AUTO 19008KT 10SM CLR 30/09 A2991 RMK AO1
KLHM 092055Z AUTO 20008KT 10SM CLR 30/10 A2991 RMK AO1
KLHM 092035Z AUTO 17006KT 10SM CLR 30/10 A2992 RMK AO1
KLHM 092015Z AUTO 19008KT 10SM CLR 28/11 A2992 RMK AO1
KLHM 091955Z AUTO 20009KT 10SM CLR 28/11 A2993 RMK AO1
KLHM 091935Z AUTO 15006KT 10SM CLR 27/12 A2993 RMK AO1
KLHM 091915Z AUTO 16007KT 10SM CLR 27/12 A2993 RMK AO1
KLHM 091855Z AUTO 17008KT 10SM CLR 26/12 A2994 RMK AO1
KLHM 091835Z AUTO 15009KT 10SM CLR 25/12 A2994 RMK AO1
KLHM 091815Z AUTO 15008KT 10SM CLR 24/12 A2994 RMK AO1
KLHM 091755Z AUTO 15010KT 10SM CLR 23/12 A2994 RMK AO1
KLHM 091735Z AUTO 15011KT 10SM CLR 24/12 A2994 RMK AO1
KLHM 091715Z AUTO 17011KT 10SM CLR 23/12 A2994 RMK AO1
KLHM 091655Z AUTO 16008KT 10SM CLR 22/13 A2994 RMK AO1
KLHM 091635Z AUTO 17009KT 10SM CLR 22/13 A2994 RMK AO1
KLHM 091615Z AUTO 16009KT 10SM CLR 20/13 A2994 RMK AO1
KLHM 091555Z AUTO 16009KT 10SM CLR 20/13 A2994 RMK AO1
KLHM 091535Z AUTO 16010KT 10SM CLR 20/13 A2993 RMK AO1
KLHM 091515Z AUTO 18010KT 10SM CLR 20/13 A2993 RMK AO1
KLHM 091455Z AUTO 15012KT 10SM CLR 19/13 A2993 RMK AO1
KLHM 091435Z AUTO 15011KT 10SM CLR 20/12 A2992 RMK AO1
KLHM 091415Z AUTO 15011G14KT 10SM CLR 18/13 A2992 RMK AO1
KLHM 091355Z AUTO 16011KT 10SM CLR 18/13 A2992 RMK AO1
KLHM 091335Z AUTO 16010KT 10SM SCT120 18/12 A2991 RMK AO1
KLHM 091315Z AUTO 15010KT 10SM BKN120 18/12 A2990 RMK AO1
KLHM 091255Z AUTO 16010KT 10SM CLR 18/12 A2990 RMK AO1
KLHM 091235Z AUTO 15009KT 10SM CLR 18/12 A2990 RMK AO1
KLHM 091215Z AUTO 15009KT 10SM CLR 18/12 A2989 RMK AO1
KLHM 091155Z AUTO 15009KT 10SM CLR 18/12 A2989 RMK AO1
KLHM 091135Z AUTO 16007KT 10SM CLR 18/12 A2989 RMK AO1
KLHM 091115Z AUTO 16008KT 10SM CLR 19/12 A2989 RMK AO1
KLHM 091055Z AUTO 16010KT 10SM CLR 20/12 A2989 RMK AO1
KLHM 091035Z AUTO 16009KT 10SM CLR 19/11 A2988 RMK AO1
KLHM 091015Z AUTO 15009KT 10SM CLR 20/11 A2988 RMK AO1
KLHM 090955Z AUTO 15011G14KT 10SM CLR 20/11 A2988 RMK AO1
KLHM 090935Z AUTO 16009KT 10SM CLR 20/11 A2988 RMK AO1
KLHM 090915Z AUTO 15007KT 10SM CLR 20/11 A2988 RMK AO1
KLHM 090855Z AUTO 16009KT 10SM CLR 20/11 A2989 RMK AO1
KLHM 090835Z AUTO 15007KT 10SM CLR 21/11 A2989 RMK AO1
KLHM 090815Z AUTO 16007KT 10SM CLR 21/11 A2989 RMK AO1
KLHM 090755Z AUTO 15011KT 10SM CLR 21/11 A2989 RMK AO1
KLHM 090735Z AUTO 15010KT 10SM CLR 22/11 A2989 RMK AO1
KLHM 090715Z AUTO 15011KT 10SM CLR 22/11 A2989 RMK AO1
KLHM 090655Z AUTO 15008KT 10SM CLR 22/11 A2988 RMK AO1
KLHM 090635Z AUTO 15010KT 10SM CLR 23/11 A2988 RMK AO1
KLHM 090615Z AUTO 15010KT 10SM CLR 24/11 A2988 RMK AO1
KLHM 090555Z AUTO 16009KT 10SM CLR 25/11 A2988 RMK AO1
KLHM 090535Z AUTO 15011KT 10SM CLR 25/11 A2988 RMK AO1
KLHM 090515Z AUTO 15008KT 10SM CLR 25/10 A2988 RMK AO1
KLHM 090455Z AUTO 16008KT 10SM CLR 25/10 A2988 RMK AO1
KLHM 090435Z AUTO 17009KT 10SM CLR 26/10 A2987 RMK AO1
KLHM 090415Z AUTO 16009KT 10SM CLR 26/10 A2987 RMK AO1
KLHM 090355Z AUTO 18007KT 10SM CLR 26/10 A2987 RMK AO1
KLHM 090335Z AUTO 20008KT 10SM CLR 27/08 A2986 RMK AO1